sensor_id;sensor_type;location;lat;lon;timestamp;temperature;humidity
14687;DHT22;7431;49.440;11.084;2023-05-21T16:49:19;25.70;1.00
14687;DHT22;7431;49.440;11.084;2023-05-21T16:51:45;25.80;1.00
14687;DHT22;7431;49.440;11.084;2023-05-21T16:54:13;25.20;1.00
14687;DHT22;7431;49.440;11.084;2023-05-21T16:56:39;25.50;1.00
14687;DHT22;7431;49.440;11.084;2023-05-21T16:59:04;25.40;1.00
14687;DHT22;7431;49.440;11.084;2023-05-21T17:01:30;25.40;1.00
14687;DHT22;7431;49.440;11.084;2023-05-21T17:03:59;25.30;1.00
14687;DHT22;7431;49.440;11.084;2023-05-21T17:06:24;25.20;1.00
14687;DHT22;7431;49.440;11.084;2023-05-21T17:08:50;25.10;1.00
14687;DHT22;7431;49.440;11.084;2023-05-21T17:11:16;25.10;1.00
14687;DHT22;7431;49.440;11.084;2023-05-21T17:13:42;25.00;1.00
14687;DHT22;7431;49.440;11.084;2023-05-21T17:16:10;24.90;1.00
14687;DHT22;7431;49.440;11.084;2023-05-21T17:18:36;24.80;1.00
14687;DHT22;7431;49.440;11.084;2023-05-21T17:21:02;24.70;1.00
14687;DHT22;7431;49.440;11.084;2023-05-21T17:23:27;24.60;1.00
14687;DHT22;7431;49.440;11.084;2023-05-21T17:25:53;24.40;1.00
14687;DHT22;7431;49.440;11.084;2023-05-21T17:28:18;24.30;1.00
14687;DHT22;7431;49.440;11.084;2023-05-21T17:30:51;24.20;1.00
14687;DHT22;7431;49.440;11.084;2023-05-21T17:33:36;24.20;1.00
14687;DHT22;7431;49.440;11.084;2023-05-21T17:36:05;24.20;1.00
14687;DHT22;7431;49.440;11.084;2023-05-21T17:38:33;24.20;1.00
14687;DHT22;7431;49.440;11.084;2023-05-21T17:40:58;24.10;1.00
14687;DHT22;7431;49.440;11.084;2023-05-21T17:43:24;24.00;1.00
14687;DHT22;7431;49.440;11.084;2023-05-21T17:45:52;24.00;1.00
14687;DHT22;7431;49.440;11.084;2023-05-21T17:48:20;23.80;1.00
14687;DHT22;7431;49.440;11.084;2023-05-21T17:50:46;23.80;1.00
14687;DHT22;7431;49.440;11.084;2023-05-21T17:53:11;23.70;1.00
14687;DHT22;7431;49.440;11.084;2023-05-21T17:55:37;23.60;1.00
14687;DHT22;7431;49.440;11.084;2023-05-21T17:58:03;23.60;1.00
14687;DHT22;7431;49.440;11.084;2023-05-21T18:00:31;23.50;1.00
14687;DHT22;7431;49.440;11.084;2023-05-21T18:02:58;23.50;1.00
14687;DHT22;7431;49.440;11.084;2023-05-21T18:05:24;23.40;1.00
14687;DHT22;7431;49.440;11.084;2023-05-21T18:07:50;23.30;1.00
14687;DHT22;7431;49.440;11.084;2023-05-21T18:10:16;23.20;1.00
14687;DHT22;7431;49.440;11.084;2023-05-21T18:12:41;23.20;1.00
14687;DHT22;7431;49.440;11.084;2023-05-21T18:15:10;23.30;1.00
14687;DHT22;7431;49.440;11.084;2023-05-21T18:17:36;23.10;1.00
14687;DHT22;7431;49.440;11.084;2023-05-21T18:20:02;23.00;1.00
14687;DHT22;7431;49.440;11.084;2023-05-21T18:22:28;23.00;1.00
14687;DHT22;7431;49.440;11.084;2023-05-21T18:24:54;22.90;1.00
14687;DHT22;7431;49.440;11.084;2023-05-21T18:27:19;23.10;1.00
14687;DHT22;7431;49.440;11.084;2023-05-21T18:29:45;22.70;1.00
14687;DHT22;7431;49.440;11.084;2023-05-21T18:32:13;22.60;1.00
14687;DHT22;7431;49.440;11.084;2023-05-21T18:34:44;22.70;1.00
14687;DHT22;7431;49.440;11.084;2023-05-21T18:37:13;22.50;1.00
14687;DHT22;7431;49.440;11.084;2023-05-21T18:39:41;22.50;1.00
14687;DHT22;7431;49.440;11.084;2023-05-21T18:42:06;22.40;1.00
14687;DHT22;7431;49.440;11.084;2023-05-21T18:44:32;22.30;1.00
14687;DHT22;7431;49.440;11.084;2023-05-21T18:46:58;22.20;1.00
14687;DHT22;7431;49.440;11.084;2023-05-21T18:49:23;22.10;1.00
14687;DHT22;7431;49.440;11.084;2023-05-21T18:51:49;22.00;1.00
14687;DHT22;7431;49.440;11.084;2023-05-21T18:54:15;22.00;1.00
14687;DHT22;7431;49.440;11.084;2023-05-21T18:56:41;21.90;1.00
14687;DHT22;7431;49.440;11.084;2023-05-21T18:59:07;21.90;1.00
14687;DHT22;7431;49.440;11.084;2023-05-21T19:01:32;21.80;1.00
14687;DHT22;7431;49.440;11.084;2023-05-21T19:04:01;21.50;1.00
14687;DHT22;7431;49.440;11.084;2023-05-21T19:06:33;21.60;1.00
14687;DHT22;7431;49.440;11.084;2023-05-21T19:09:14;22.20;1.00
14687;DHT22;7431;49.440;11.084;2023-05-21T19:11:40;21.40;1.00
14687;DHT22;7431;49.440;11.084;2023-05-21T19:14:05;22.30;1.00
14687;DHT22;7431;49.440;11.084;2023-05-21T19:16:31;22.40;1.00
14687;DHT22;7431;49.440;11.084;2023-05-21T19:18:56;21.00;1.00
14687;DHT22;7431;49.440;11.084;2023-05-21T19:21:22;20.90;1.00
14687;DHT22;7431;49.440;11.084;2023-05-21T19:23:48;20.80;1.00
14687;DHT22;7431;49.440;11.084;2023-05-21T19:26:14;20.60;1.00
14687;DHT22;7431;49.440;11.084;2023-05-21T19:28:39;20.50;1.00
14687;DHT22;7431;49.440;11.084;2023-05-21T19:31:07;20.50;1.00
14687;DHT22;7431;49.440;11.084;2023-05-21T19:33:36;20.40;1.00
14687;DHT22;7431;49.440;11.084;2023-05-21T19:36:01;20.50;1.00
14687;DHT22;7431;49.440;11.084;2023-05-21T19:38:27;20.40;1.00
14687;DHT22;7431;49.440;11.084;2023-05-21T19:40:53;20.40;1.00
14687;DHT22;7431;49.440;11.084;2023-05-21T19:43:18;20.40;1.00
14687;DHT22;7431;49.440;11.084;2023-05-21T19:45:47;20.40;1.00
14687;DHT22;7431;49.440;11.084;2023-05-21T19:48:45;20.30;1.00
14687;DHT22;7431;49.440;11.084;2023-05-21T19:51:11;20.30;1.00
14687;DHT22;7431;49.440;11.084;2023-05-21T19:53:39;20.00;1.00
14687;DHT22;7431;49.440;11.084;2023-05-21T19:56:07;21.30;1.00
14687;DHT22;7431;49.440;11.084;2023-05-21T19:58:36;20.00;1.00
14687;DHT22;7431;49.440;11.084;2023-05-21T20:01:02;20.00;1.00
14687;DHT22;7431;49.440;11.084;2023-05-21T20:03:28;19.90;1.00
14687;DHT22;7431;49.440;11.084;2023-05-21T20:06:02;20.30;1.00
14687;DHT22;7431;49.440;11.084;2023-05-21T20:08:28;20.10;1.00
14687;DHT22;7431;49.440;11.084;2023-05-21T20:10:57;20.10;1.00
14687;DHT22;7431;49.440;11.084;2023-05-21T20:13:23;20.20;1.00
14687;DHT22;7431;49.440;11.084;2023-05-21T20:15:51;20.00;1.00
14687;DHT22;7431;49.440;11.084;2023-05-21T20:18:17;20.20;1.00
14687;DHT22;7431;49.440;11.084;2023-05-21T20:20:44;20.60;1.00
14687;DHT22;7431;49.440;11.084;2023-05-21T20:23:11;19.80;1.00
14687;DHT22;7431;49.440;11.084;2023-05-21T20:25:43;20.50;1.00
14687;DHT22;7431;49.440;11.084;2023-05-21T20:28:08;19.80;1.00
14687;DHT22;7431;49.440;11.084;2023-05-21T20:30:53;19.70;1.00
14687;DHT22;7431;49.440;11.084;2023-05-21T20:33:22;19.70;1.00
14687;DHT22;7431;49.440;11.084;2023-05-21T20:35:52;19.70;1.00
14687;DHT22;7431;49.440;11.084;2023-05-21T20:38:21;19.50;1.00
14687;DHT22;7431;49.440;11.084;2023-05-21T20:40:50;19.40;1.00
14687;DHT22;7431;49.440;11.084;2023-05-21T20:43:16;19.60;1.00
14687;DHT22;7431;49.440;11.084;2023-05-21T20:45:43;20.20;1.00
14687;DHT22;7431;49.440;11.084;2023-05-21T20:48:12;19.70;1.00
14687;DHT22;7431;49.440;11.084;2023-05-21T20:50:39;19.90;1.00
14687;DHT22;7431;49.440;11.084;2023-05-21T20:53:06;19.40;1.00
14687;DHT22;7431;49.440;11.084;2023-05-21T20:55:34;19.30;1.00
14687;DHT22;7431;49.440;11.084;2023-05-21T20:58:04;20.00;1.00
14687;DHT22;7431;49.440;11.084;2023-05-21T21:00:33;19.30;1.00
14687;DHT22;7431;49.440;11.084;2023-05-21T21:02:58;18.70;1.00
14687;DHT22;7431;49.440;11.084;2023-05-21T21:06:05;19.10;1.00
14687;DHT22;7431;49.440;11.084;2023-05-21T21:08:33;19.10;1.00
14687;DHT22;7431;49.440;11.084;2023-05-21T21:10:59;19.50;1.00
14687;DHT22;7431;49.440;11.084;2023-05-21T21:13:25;18.70;1.00
14687;DHT22;7431;49.440;11.084;2023-05-21T21:15:50;18.70;1.00
14687;DHT22;7431;49.440;11.084;2023-05-21T21:18:16;18.60;1.00
14687;DHT22;7431;49.440;11.084;2023-05-21T21:20:42;18.10;1.00
14687;DHT22;7431;49.440;11.084;2023-05-21T21:23:08;18.00;1.00
14687;DHT22;7431;49.440;11.084;2023-05-21T21:25:33;18.50;1.00
14687;DHT22;7431;49.440;11.084;2023-05-21T21:27:59;18.40;1.00
14687;DHT22;7431;49.440;11.084;2023-05-21T21:30:24;18.90;7.50
14687;DHT22;7431;49.440;11.084;2023-05-21T21:32:50;18.40;13.70
14687;DHT22;7431;49.440;11.084;2023-05-21T21:35:16;18.40;38.00
14687;DHT22;7431;49.440;11.084;2023-05-21T21:37:41;18.30;33.60
14687;DHT22;7431;49.440;11.084;2023-05-21T21:40:08;18.30;29.80
14687;DHT22;7431;49.440;11.084;2023-05-21T21:42:33;18.30;45.50
